Terminal Aerodrome Forecast
Issued by NWS

Home | Current Version | Previous Version | Text Only | Print | Product List | Glossary On
Versions: 1 2 3 4 5 6 7 8 9 10 11 12 13 14 15 16 17 18 19
000
FTUS43 KFGF 282322
TAFBJI
TAF
KBJI 282322Z 2900/2924 21010KT P6SM SCT120
     FM290300 VRB06KT P6SM BKN250
      TEMPO 2909/2913 3SM BR
     FM291800 17008KT P6SM SCT250=

USA.gov is the U.S. government's official web portal to all federal, state and local government web resources and services.